Flight Track Log - Related Links

Times and Time Zones

All times are in EDT time to prevent confusion due to time zone crossing. See the UCA3597 flight status page for this flight to view local times or setup timezone preferences in your user account.

Time Position Orientation Groundspeed Altitude Reporting Facility
EDT Latitude Longitude Course Direction KTS MPH feet Rate Location/Type
Sun 05:49:00 PM 39.3327 -77.2928 19° North  Level Estimated
Sun 05:50:00 PM 39.3969 -77.2647 19° North  Level Estimated
Sun 05:51:00 PM 39.4611 -77.2367 19° North  Level Estimated
Sun 05:52:00 PM 39.5253 -77.2085 19° North  Level Estimated
Sun 05:53:00 PM 39.5895 -77.1803 19° North  Level Estimated
Sun 05:54:00 PM 39.6536 -77.1521 19° North  Level Estimated
Sun 05:55:00 PM 39.7178 -77.1238 19° North  Level Estimated
Sun 05:56:00 PM 39.7819 -77.0954 19° North  Level Estimated
Sun 05:57:00 PM 39.8461 -77.0670 19° North  Level Estimated
Sun 05:58:00 PM 39.9102 -77.0386 19° North  Level Estimated
Sun 05:59:00 PM 39.9743 -77.0101 19° North  Level Estimated
Sun 06:00:00 PM 40.0384 -76.9815 19° North  Level Estimated
Sun 06:01:00 PM 40.1026 -76.9529 19° North  Level Estimated
Sun 06:02:00 PM 40.1667 -76.9242 19° North  Level Estimated
Sun 06:03:00 PM 40.2308 -76.8955 19° North  Level Estimated
Sun 06:04:00 PM 40.2949 -76.8667 19° North  Level Estimated
Sun 06:05:00 PM 40.3590 -76.8379 19° North  Level Estimated
Sun 06:06:00 PM 40.4230 -76.8090 19° North  Level Estimated
Sun 06:07:00 PM 40.4871 -76.7800 19° North  Level Estimated
Sun 06:08:00 PM 40.5512 -76.7510 19° North  Level Estimated
Sun 06:09:00 PM 40.6152 -76.7220 19° North  Level Estimated
Sun 06:10:00 PM 40.6793 -76.6928 19° North  Level Estimated
Sun 06:11:00 PM 40.7433 -76.6637 19° North  Level Estimated
Sun 06:12:00 PM 40.8074 -76.6345 19° North  Level Estimated
Sun 06:13:00 PM 40.8714 -76.6052 19° North  Level Estimated
Sun 06:14:00 PM 40.9354 -76.5758 19° North  Level Estimated
Sun 06:15:00 PM 40.9994 -76.5464 19° North  Level Estimated
Sun 06:16:00 PM 41.0634 -76.5170 19° North  Level Estimated
Sun 06:17:00 PM 41.1274 -76.4875 19° North  Level Estimated
Sun 06:18:00 PM 41.1914 -76.4579 19° North  Level Estimated
Sun 06:19:00 PM 41.2554 -76.4283 19° North  Level Estimated
Sun 06:20:00 PM 41.3194 -76.3986 19° North  Level Estimated
Sun 06:21:00 PM 41.3834 -76.3689 19° North  Level Estimated
Sun 06:22:00 PM 41.4473 -76.3391 19° North  Level Estimated
Sun 06:23:00 PM 41.5113 -76.3092 19° North  Level Estimated
Sun 06:24:00 PM 41.5752 -76.2793 19° North  Level Estimated
Sun 06:25:00 PM 41.6392 -76.2493 19° North  Level Estimated
Sun 06:26:00 PM 41.7031 -76.2193 19° North  Level Estimated
Sun 06:27:00 PM 41.7670 -76.1892 19° North  Level Estimated
Sun 06:28:00 PM 41.8309 -76.1590 19° North  Level Estimated
Sun 06:29:00 PM 41.8948 -76.1288 19° North  Level Estimated
Sun 06:30:00 PM 41.9587 -76.0985 19° North  Level Estimated
Sun 06:31:00 PM 42.0226 -76.0682 19° North  Level Estimated
Sun 06:32:00 PM 42.0865 -76.0378 19° North  Level Estimated
Sun 06:33:00 PM 42.1504 -76.0073 19° North  Level Estimated
Sun 06:34:00 PM 42.2084 -75.9796 19° North  Level Estimated
Sun 06:35:00 PM 42.2084 -75.9796 35° Northeast  Level Estimated
Sun 06:36:00 PM 42.2084 -75.9796 35° Northeast  Level Estimated
Sun 06:37:00 PM 42.2084 -75.9796 35° Northeast  Level Estimated
Sun 06:38:00 PM 42.2084 -75.9796 35° Northeast  Level Estimated
Sun 06:39:00 PM 42.2084 -75.9796 35° Northeast  Level Estimated
Sun 06:40:00 PM 42.2084 -75.9796 35° Northeast  Level Estimated
Sun 06:41:00 PM 42.2084 -75.9796 35° Northeast  Level Estimated
Sun 06:42:00 PM 42.2084 -75.9796 35° Northeast  Level Estimated
Sun 06:43:00 PM 42.2084 -75.9796 35° Northeast  Level Estimated
Sun 06:44:00 PM 42.2084 -75.9796 35° Northeast  Level Estimated
Sun 06:45:00 PM 42.2084 -75.9796 35° Northeast  Level Estimated
Sun 06:46:00 PM 42.2084 -75.9796 35° Northeast  Level Estimated
Sun 06:47:00 PM 42.2084 -75.9796 35° Northeast  Level Estimated
Sun 06:48:00 PM 42.2084 -75.9796 35° Northeast  Level Estimated
Sun 06:49:00 PM 42.2084 -75.9796 35° Northeast  Level Estimated
Sun 06:50:00 PM 42.2084 -75.9796 35° Northeast  Level Estimated

Login

Don't have an account? Register now (free) for customized features, flight alerts, and more!